メインページ
METAR-TAF:

METAR-TAF

空港 :

ルクセンブルク, ルクセンブルク

ルクセンブルク-フィンデル空港

緯度: 49-37N, 経度: 006-13E, 海抜: 376m

現時点の気象観測

当レポートは45分前の14:50(UTC)に作成
西の風 14kt
気温 22°C
湿度 53%
気圧 1015 hPa
視程10km以上

METAR: ELLX 251450Z AUTO 26014KT 9999 FEW037/// OVC052/// 22/12 Q1015 NOSIG

時間: 17:35 (15:35 UTC)

予報

当レポートは4時間35分前の11:00(UTC)に作成
予報は25日の 12時(UTC)から 26日の 18時(UTC)まで有効
西/南西の風 12kt、最大22ktの突風を伴う
視程10km以上
高度2500ftの雲は散在している
高度4000ftの千切れ雲あり
25日の 18時(UTC)から 25日の 21時(UTC)まで徐々に
西の風 6kt
26日の 12時(UTC)から 26日の 15時(UTC)まで徐々に
北/北東の風 5kt

TAF: ELLX 251100Z 2512/2618 25012G22KT 9999 SCT025 BKN040 BECMG 2518/2521 26006KT BECMG 2612/2615 02005KT

4,000以上の空港の気象観測と天気予報(METAR報とTAF報)

利用可能な観測所は地図上に黄色い丸と赤い丸で示す。

丸の上にカーソルを重ねると観測所名を参照できる。

次にクリックすると気象観測と天気予報を参照できる。

マップの切り替え:黒色「×」印の緑ボタンをクリックして拡大、「-」印の緑ボタンをクリックして縮小、緑色の三角印をクリックして隣りの地図に切り替え


METAR-TAF: